Time;durP1;ratioP1;P1;durP2;ratioP2;P2;SDS_P1;SDS_P2;PMS_P1;PMS_P2;Temp;Humidity;BMP_temperature;BMP_pressure;BME280_temperature;BME280_humidity;BME280_pressure;Samples;Min_cycle;Max_cycle;Signal;HPM_P1;HPM_P2
2024/03/31 00:01:03;;;;;;;10.00;4.43;;;;;;;11.16;96.39;154224.53;5031838;28;20215;-94
2024/03/31 00:03:29;;;;;;;15.63;4.37;;;;;;;11.20;97.12;154234.94;5017674;28;20901;-93
2024/03/31 00:05:55;;;;;;;10.43;4.37;;;;;;;11.20;97.50;154236.19;5064586;28;20467;-93
2024/03/31 00:08:21;;;;;;;13.20;4.40;;;;;;;11.20;97.54;154234.94;5041995;28;20837;-94
2024/03/31 00:10:47;;;;;;;9.87;4.40;;;;;;;11.20;97.08;154236.19;5031479;28;20261;-94
2024/03/31 00:13:13;;;;;;;10.57;4.30;;;;;;;11.23;97.37;154242.66;5033479;28;20446;-94
2024/03/31 00:15:40;;;;;;;10.50;3.90;;;;;;;11.26;96.96;154250.44;5039967;28;20229;-94
2024/03/31 00:18:07;;;;;;;7.07;3.03;;;;;;;11.25;97.17;154247.88;5030648;28;20490;-94
2024/03/31 00:20:34;;;;;;;12.13;3.70;;;;;;;11.26;97.07;154250.44;5044171;28;20558;-94
2024/03/31 00:22:59;;;;;;;12.13;3.80;;;;;;;11.25;96.63;154247.88;5050275;28;20474;-94
2024/03/31 00:25:26;;;;;;;13.43;4.53;;;;;;;11.20;95.91;154234.94;5035684;28;20638;-94
2024/03/31 00:27:52;;;;;;;10.40;3.83;;;;;;;11.18;95.73;154229.72;5034196;28;20214;-94
2024/03/31 00:30:18;;;;;;;6.70;3.50;;;;;;;11.18;95.57;154231.00;5040736;28;20530;-96
2024/03/31 00:32:45;;;;;;;8.43;3.60;;;;;;;11.17;95.61;154227.16;5031349;28;20210;-93
2024/03/31 00:35:11;;;;;;;11.73;3.77;;;;;;;11.17;95.84;154227.16;5032493;28;20950;-93
2024/03/31 00:37:37;;;;;;;10.07;4.00;;;;;;;11.18;95.98;154229.72;5031533;28;20525;-94
2024/03/31 00:40:04;;;;;;;8.57;3.50;;;;;;;11.20;96.68;154234.94;5013790;28;20891;-94
2024/03/31 00:42:30;;;;;;;10.50;4.20;;;;;;;11.17;96.25;154228.44;5013572;28;20230;-94
2024/03/31 00:44:56;;;;;;;12.70;4.17;;;;;;;11.18;95.74;154229.72;5031572;28;20486;-94
2024/03/31 00:47:22;;;;;;;13.23;4.00;;;;;;;11.17;95.79;154227.16;5032021;28;20261;-94
2024/03/31 00:49:49;;;;;;;8.10;3.37;;;;;;;11.18;95.47;154229.72;5024979;28;20439;-94
2024/03/31 00:52:16;;;;;;;11.47;3.70;;;;;;;11.19;95.78;154232.31;5033866;28;20272;-93
2024/03/31 00:54:42;;;;;;;11.60;3.30;;;;;;;11.17;95.61;154228.44;5012920;28;20514;-93
2024/03/31 00:57:09;;;;;;;11.33;3.87;;;;;;;11.19;95.72;154233.63;5029719;28;20439;-93
2024/03/31 00:59:35;;;;;;;9.63;3.10;;;;;;;11.22;96.28;154240.09;5031641;28;20943;-94
2024/03/31 01:02:02;;;;;;;7.27;3.60;;;;;;;11.21;96.28;154238.78;5031665;28;20471;-94
2024/03/31 01:04:27;;;;;;;5.90;3.07;;;;;;;11.24;97.14;154245.25;5014480;28;20228;-94
2024/03/31 01:06:57;;;;;;;7.30;3.43;;;;;;;11.26;97.19;154250.44;5030896;28;20930;-94
2024/03/31 01:09:22;;;;;;;16.07;4.00;;;;;;;11.23;97.78;154243.97;5013988;28;20203;-94
2024/03/31 01:11:51;;;;;;;10.60;3.30;;;;;;;11.22;97.99;154240.09;5021818;28;20449;-93
2024/03/31 01:14:17;;;;;;;11.33;2.90;;;;;;;11.21;98.63;154237.47;5033305;28;20582;-94
2024/03/31 01:16:44;;;;;;;10.60;3.70;;;;;;;11.17;98.62;154228.44;5045462;28;20442;-94
2024/03/31 01:19:09;;;;;;;18.30;3.80;;;;;;;11.15;98.74;154223.22;5017650;28;20202;-94
2024/03/31 01:21:36;;;;;;;14.33;3.57;;;;;;;11.16;99.10;154224.53;5017764;28;20453;-94
2024/03/31 01:24:03;;;;;;;5.73;3.50;;;;;;;11.08;99.19;154203.81;5035057;28;20234;-94
2024/03/31 01:26:30;;;;;;;11.07;3.80;;;;;;;11.07;99.23;154202.50;5035159;28;20537;-94
2024/03/31 01:28:56;;;;;;;11.20;3.90;;;;;;;11.07;99.41;154201.25;5053717;28;20924;-94
2024/03/31 01:31:22;;;;;;;13.47;3.83;;;;;;;11.06;99.54;154198.63;5055627;28;20497;-94
2024/03/31 01:33:49;;;;;;;8.60;3.60;;;;;;;11.03;99.27;154192.16;5052474;28;20206;-95
2024/03/31 01:36:15;;;;;;;11.10;4.10;;;;;;;11.08;99.67;154203.81;5034996;28;20956;-95
2024/03/31 01:38:41;;;;;;;10.20;3.80;;;;;;;11.11;99.91;154211.59;5034739;28;20899;-95
2024/03/31 01:41:09;;;;;;;8.63;2.97;;;;;;;11.11;99.98;154211.59;5036381;28;20450;-94
2024/03/31 01:43:34;;;;;;;7.97;3.43;;;;;;;11.13;100.00;154218.06;5038499;28;20233;-94
2024/03/31 01:46:01;;;;;;;10.20;4.20;;;;;;;11.13;100.00;154216.75;5056812;28;20436;-94
2024/03/31 01:48:27;;;;;;;9.10;4.03;;;;;;;11.05;99.52;154196.03;5040170;28;20209;-95
2024/03/31 01:50:53;;;;;;;12.47;3.90;;;;;;;11.00;99.38;154184.38;5036091;28;20785;-95
2024/03/31 01:53:19;;;;;;;11.43;3.70;;;;;;;10.99;99.30;154183.09;5018005;28;20783;-94
2024/03/31 01:55:45;;;;;;;14.87;3.60;;;;;;;10.99;99.65;154181.78;5035011;28;20439;-94
2024/03/31 01:58:12;;;;;;;8.40;2.60;;;;;;;10.97;99.39;154177.91;5000759;28;20210;-94
2024/03/31 02:00:39;;;;;;;8.77;4.40;;;;;;;10.96;99.30;154175.31;5017624;28;20443;-94
2024/03/31 02:03:05;;;;;;;8.07;3.20;;;;;;;10.92;98.79;154164.97;5014050;28;20895;-94
2024/03/31 02:05:31;;;;;;;14.07;3.67;;;;;;;10.91;97.27;154162.34;4980896;28;20449;-93
2024/03/31 02:07:58;;;;;;;10.80;4.30;;;;;;;10.88;96.29;154154.56;4997216;28;20235;-94
2024/03/31 02:10:24;;;;;;;17.87;4.13;;;;;;;10.90;96.15;154159.78;4998009;28;20499;-95
2024/03/31 02:12:50;;;;;;;12.07;3.63;;;;;;;10.92;97.19;154164.97;5013672;28;20203;-95
2024/03/31 02:15:19;;;;;;;9.60;3.30;;;;;;;10.90;96.75;154159.78;4981302;28;20943;-95
2024/03/31 02:17:44;;;;;;;11.33;3.20;;;;;;;10.88;95.85;154154.56;5015453;28;20452;-95
2024/03/31 02:20:11;;;;;;;12.13;3.87;;;;;;;10.88;95.01;154153.31;5020366;28;20451;-94
2024/03/31 02:22:37;;;;;;;9.23;3.33;;;;;;;10.88;94.56;154154.56;5037201;28;20296;-95
2024/03/31 02:25:04;;;;;;;11.00;4.37;;;;;;;10.91;94.14;154162.34;5034977;28;20444;-95
2024/03/31 02:27:30;;;;;;;13.80;4.23;;;;;;;10.88;93.49;154154.56;4998527;28;20207;-95
2024/03/31 02:29:56;;;;;;;7.23;3.47;;;;;;;10.84;93.89;154144.25;5043706;28;20490;-95
2024/03/31 02:32:24;;;;;;;12.83;4.30;;;;;;;10.79;94.38;154131.28;5053031;28;20248;-95
2024/03/31 02:34:50;;;;;;;13.20;4.10;;;;;;;10.74;94.09;154118.34;5036178;28;21047;-95
2024/03/31 02:37:19;;;;;;;8.13;4.00;;;;;;;10.71;94.00;154110.56;5036280;28;20791;-95
2024/03/31 02:39:44;;;;;;;10.70;4.67;;;;;;;10.68;94.68;154101.50;5052454;28;20443;-94
2024/03/31 02:42:11;;;;;;;18.80;4.80;;;;;;;10.61;95.45;154084.69;5029638;28;20452;-94
2024/03/31 02:44:37;;;;;;;12.53;4.70;;;;;;;10.49;96.71;154052.28;5042878;28;20459;-94
2024/03/31 02:47:04;;;;;;;12.03;4.27;;;;;;;10.41;96.85;154032.88;5033242;28;20461;-94
2024/03/31 02:49:32;;;;;;;13.00;5.17;;;;;;;10.38;97.04;154025.09;5032458;28;20591;-94
2024/03/31 02:51:59;;;;;;;19.87;4.40;;;;;;;10.42;97.54;154035.47;5035655;28;20516;-94
2024/03/31 02:54:25;;;;;;;15.63;4.40;;;;;;;10.46;98.60;154045.81;5052161;28;20439;-94
2024/03/31 02:56:51;;;;;;;13.20;3.60;;;;;;;10.49;99.37;154053.59;5045868;28;20536;-94
2024/03/31 03:00:13;;;;;;;8.57;3.23;;;;;;;10.54;99.46;154066.53;5052639;28;20210;-94
2024/03/31 03:02:40;;;;;;;9.33;3.80;;;;;;;10.56;98.79;154071.75;5052170;28;20463;-94
2024/03/31 03:05:08;;;;;;;11.53;3.27;;;;;;;10.58;98.59;154076.91;5052170;28;20442;-95
2024/03/31 03:07:34;;;;;;;9.03;3.50;;;;;;;10.58;98.50;154075.59;5035802;28;20849;-94
2024/03/31 03:10:00;;;;;;;9.07;3.57;;;;;;;10.55;98.43;154069.13;5052114;28;20454;-94
2024/03/31 03:12:27;;;;;;;13.17;3.97;;;;;;;10.56;98.99;154070.44;5035584;28;20443;-94
2024/03/31 03:14:52;;;;;;;7.37;3.50;;;;;;;10.53;99.30;154063.97;5035684;28;20206;-94
2024/03/31 03:17:19;;;;;;;8.00;3.23;;;;;;;10.44;99.33;154039.34;5052660;28;20517;-95
2024/03/31 03:19:45;;;;;;;13.87;3.30;;;;;;;10.42;98.88;154035.47;5052696;28;20202;-94
2024/03/31 03:22:13;;;;;;;8.80;2.83;;;;;;;10.42;98.96;154035.47;5052287;28;20439;-95
2024/03/31 03:24:39;;;;;;;15.70;3.43;;;;;;;10.43;98.73;154036.78;5059318;28;20301;-95
2024/03/31 03:27:05;;;;;;;15.70;4.17;;;;;;;10.38;98.40;154025.09;5070569;28;20423;-94
2024/03/31 03:29:31;;;;;;;11.47;3.20;;;;;;;10.34;98.31;154014.75;5056092;28;20304;-93
2024/03/31 03:31:58;;;;;;;10.90;3.60;;;;;;;10.27;98.67;153997.91;5035898;28;20537;-93
2024/03/31 03:34:24;;;;;;;6.77;3.20;;;;;;;10.23;99.06;153987.56;5035784;28;20202;-94
2024/03/31 03:36:54;;;;;;;9.30;3.70;;;;;;;10.17;98.89;153972.03;5035428;28;20455;-94
2024/03/31 03:39:22;;;;;;;8.60;3.80;;;;;;;10.13;99.40;153960.41;5029857;28;20447;-93
2024/03/31 03:41:49;;;;;;;13.10;3.50;;;;;;;10.07;99.47;153944.81;5020761;28;20483;-92
2024/03/31 03:44:16;;;;;;;5.13;2.90;;;;;;;10.08;100.00;153947.41;5035521;28;20485;-93
2024/03/31 03:46:43;;;;;;;14.50;3.50;;;;;;;10.04;100.00;153937.03;5014618;28;20460;-93
2024/03/31 03:49:10;;;;;;;12.03;4.57;;;;;;;10.00;100.00;153926.69;5033111;28;20455;-91
2024/03/31 03:51:37;;;;;;;8.43;3.30;;;;;;;9.98;100.00;153921.53;5032018;28;20312;-96
2024/03/31 03:54:04;;;;;;;8.90;3.70;;;;;;;9.94;100.00;153911.16;5042530;28;20998;-94
2024/03/31 03:56:31;;;;;;;10.17;4.00;;;;;;;9.89;100.00;153898.22;5032711;28;20435;-94
2024/03/31 03:58:58;;;;;;;8.23;3.70;;;;;;;9.88;100.00;153895.59;5021207;28;20478;-94
2024/03/31 04:01:23;;;;;;;8.87;4.20;;;;;;;9.84;100.00;153885.28;5014586;28;20548;-94
2024/03/31 04:03:50;;;;;;;13.10;4.77;;;;;;;9.80;100.00;153877.50;5032096;28;20523;-94
2024/03/31 04:06:18;;;;;;;13.13;4.93;;;;;;;9.77;100.00;153869.75;5025884;28;20222;-94
2024/03/31 04:08:45;;;;;;;10.17;4.10;;;;;;;9.75;100.00;153864.56;5032329;28;20440;-93
2024/03/31 04:11:11;;;;;;;10.93;4.63;;;;;;;9.79;100.00;153873.66;5031098;28;20225;-95
2024/03/31 04:13:39;;;;;;;12.60;5.10;;;;;;;9.74;100.00;153861.97;5014764;28;20444;-95
2024/03/31 04:16:05;;;;;;;13.93;5.20;;;;;;;9.70;100.00;153851.63;5032867;28;20229;-94
2024/03/31 04:18:36;;;;;;;13.10;5.23;;;;;;;9.69;100.00;153849.03;5031725;28;20435;-96
2024/03/31 04:21:03;;;;;;;8.73;5.80;;;;;;;9.69;100.00;153849.03;5015284;28;20919;-94
2024/03/31 04:23:29;;;;;;;7.60;4.90;;;;;;;9.69;100.00;153849.03;5014800;28;20467;-95
2024/03/31 04:25:55;;;;;;;12.33;6.33;;;;;;;9.72;100.00;153856.81;5031726;28;20431;-93
2024/03/31 04:28:21;;;;;;;9.83;4.90;;;;;;;9.76;100.00;153867.19;5015218;28;20466;-94
2024/03/31 04:30:48;;;;;;;13.40;5.83;;;;;;;9.82;100.00;153880.13;5017968;28;20312;-95
2024/03/31 04:33:16;;;;;;;12.43;6.33;;;;;;;9.84;100.00;153885.28;5035677;28;20525;-94
2024/03/31 04:35:41;;;;;;;12.20;5.90;;;;;;;9.82;100.00;153882.69;5031549;28;20463;-94
2024/03/31 04:38:08;;;;;;;11.90;5.87;;;;;;;9.85;100.00;153887.88;5032342;28;20448;-96
2024/03/31 04:40:34;;;;;;;11.20;5.40;;;;;;;9.86;100.00;153890.44;5014759;28;20452;-95
2024/03/31 04:43:01;;;;;;;15.47;6.97;;;;;;;9.85;100.00;153889.16;5032551;28;20967;-95
2024/03/31 04:45:32;;;;;;;12.37;6.43;;;;;;;9.86;100.00;153890.44;5014089;28;20206;-95
2024/03/31 04:48:02;;;;;;;11.50;5.63;;;;;;;9.82;100.00;153880.13;5014296;28;20448;-94
2024/03/31 04:50:28;;;;;;;15.20;6.70;;;;;;;9.80;100.00;153876.22;5032778;28;20459;-94
2024/03/31 04:52:55;;;;;;;8.90;6.03;;;;;;;9.78;100.00;153872.34;5018538;28;20489;-95
2024/03/31 04:55:20;;;;;;;10.03;6.00;;;;;;;9.77;100.00;153869.75;5035573;28;20297;-95
2024/03/31 04:57:48;;;;;;;16.27;7.00;;;;;;;9.77;100.00;153869.75;5018537;28;20538;-95
2024/03/31 05:00:14;;;;;;;15.10;6.60;;;;;;;9.75;100.00;153864.56;5037031;28;20202;-93
2024/03/31 05:02:41;;;;;;;10.83;7.13;;;;;;;9.72;100.00;153855.50;5018469;28;20454;-94
2024/03/31 05:05:09;;;;;;;15.77;8.07;;;;;;;9.70;100.00;153851.63;5035431;28;20673;-93
2024/03/31 05:07:35;;;;;;;21.73;7.77;;;;;;;9.69;100.00;153849.03;5038502;28;20450;-94
2024/03/31 05:10:01;;;;;;;11.47;6.93;;;;;;;9.68;100.00;153845.16;5046245;28;20452;-95
2024/03/31 05:12:30;;;;;;;15.47;7.47;;;;;;;9.69;100.00;153847.72;5035708;28;20442;-95
2024/03/31 05:14:55;;;;;;;15.37;8.50;;;;;;;9.69;100.00;153847.72;5036423;28;20198;-95
2024/03/31 05:17:22;;;;;;;15.60;7.67;;;;;;;9.69;100.00;153847.72;5018543;28;20471;-94
2024/03/31 05:19:50;;;;;;;14.03;7.80;;;;;;;9.66;100.00;153841.25;5034976;28;20214;-95
2024/03/31 05:22:18;;;;;;;14.37;8.13;;;;;;;9.66;100.00;153840.00;5034466;28;20497;-95
2024/03/31 05:24:45;;;;;;;22.03;9.87;;;;;;;9.65;100.00;153838.72;5018043;28;20494;-95
2024/03/31 05:27:12;;;;;;;14.23;8.10;;;;;;;9.64;100.00;153836.09;5018149;28;20435;-95
2024/03/31 05:29:37;;;;;;;18.90;8.13;;;;;;;9.64;100.00;153836.09;5017250;28;20487;-96
2024/03/31 05:32:04;;;;;;;17.13;8.90;;;;;;;9.65;100.00;153838.72;5017748;28;20502;-95
2024/03/31 05:34:47;;;;;;;16.47;8.90;;;;;;;9.65;100.00;153837.41;5035628;28;20225;-95
2024/03/31 05:37:14;;;;;;;16.13;8.70;;;;;;;9.69;100.00;153849.03;5017669;28;20491;-95
2024/03/31 05:39:41;;;;;;;14.50;7.47;;;;;;;9.70;100.00;153851.63;5034460;28;20293;-96
2024/03/31 05:42:08;;;;;;;12.77;7.40;;;;;;;9.73;100.00;153859.41;5017781;28;20460;-95
2024/03/31 05:44:33;;;;;;;12.43;7.93;;;;;;;9.74;100.00;153861.97;5035859;28;20483;-95
2024/03/31 05:47:00;;;;;;;15.07;6.90;;;;;;;9.74;100.00;153860.72;5035566;28;20513;-95
2024/03/31 05:49:27;;;;;;;11.10;6.80;;;;;;;9.73;100.00;153859.41;5034123;28;20289;-95
2024/03/31 05:51:53;;;;;;;10.53;6.60;;;;;;;9.73;100.00;153859.41;5017826;28;20516;-96
2024/03/31 05:54:19;;;;;;;14.67;6.07;;;;;;;9.74;100.00;153861.97;5001992;28;20210;-96
2024/03/31 05:56:46;;;;;;;14.73;6.33;;;;;;;9.75;100.00;153864.56;5034457;28;20428;-95
2024/03/31 05:59:12;;;;;;;11.17;6.23;;;;;;;9.77;100.00;153869.75;5017813;28;20214;-95
2024/03/31 06:01:39;;;;;;;14.10;5.80;;;;;;;9.80;100.00;153877.50;5018965;28;20466;-95
2024/03/31 06:04:05;;;;;;;16.30;5.43;;;;;;;9.85;100.00;153889.16;5037816;28;20654;-94
2024/03/31 06:06:31;;;;;;;20.67;5.90;;;;;;;9.94;100.00;153911.16;5036841;28;20486;-94
2024/03/31 06:08:57;;;;;;;13.17;5.87;;;;;;;9.95;100.00;153913.75;5040167;28;20203;-96
2024/03/31 06:11:23;;;;;;;9.90;4.93;;;;;;;9.87;100.00;153893.06;5038669;28;20535;-94
2024/03/31 06:13:51;;;;;;;12.73;6.00;;;;;;;9.80;100.00;153877.50;5021794;28;20206;-93
2024/03/31 06:16:17;;;;;;;9.33;5.43;;;;;;;9.78;100.00;153872.34;5037177;28;20455;-94
2024/03/31 06:18:43;;;;;;;11.47;5.47;;;;;;;9.77;100.00;153868.44;5037019;28;20518;-94
2024/03/31 06:21:10;;;;;;;13.60;5.30;;;;;;;9.77;100.00;153868.44;5034231;28;20436;-94
2024/03/31 06:23:36;;;;;;;12.70;4.67;;;;;;;9.72;100.00;153856.81;5033584;28;20993;-94
2024/03/31 06:26:04;;;;;;;18.73;6.13;;;;;;;9.71;100.00;153854.25;5016882;28;20447;-94
2024/03/31 06:28:31;;;;;;;11.80;5.77;;;;;;;9.72;100.00;153856.81;5033743;28;20424;-96
2024/03/31 06:30:58;;;;;;;15.37;5.37;;;;;;;9.84;100.00;153885.28;5017104;28;20521;-96
2024/03/31 06:33:24;;;;;;;11.60;5.17;;;;;;;10.01;100.00;153929.25;5035993;28;20281;-96
2024/03/31 06:35:53;;;;;;;9.10;5.67;;;;;;;10.25;100.00;153992.75;5036163;28;20542;-96
2024/03/31 06:38:18;;;;;;;13.57;5.80;;;;;;;10.47;100.00;154048.41;5038867;28;20450;-96
2024/03/31 06:40:46;;;;;;;13.43;5.50;;;;;;;10.62;100.00;154085.94;5034962;28;20499;-95
2024/03/31 06:43:13;;;;;;;10.77;4.77;;;;;;;10.62;100.00;154087.25;5016989;28;20470;-94
2024/03/31 06:45:39;;;;;;;11.17;5.57;;;;;;;10.64;100.00;154092.47;5034595;28;20455;-96
2024/03/31 06:48:07;;;;;;;7.50;4.50;;;;;;;10.79;100.00;154131.28;5046214;28;20218;-95
2024/03/31 06:50:33;;;;;;;10.50;4.53;;;;;;;11.04;100.00;154193.47;5033852;28;20474;-95
2024/03/31 06:52:59;;;;;;;10.13;4.90;;;;;;;11.22;100.00;154240.09;5040314;28;20432;-96
2024/03/31 06:55:25;;;;;;;9.03;4.67;;;;;;;11.28;100.00;154255.66;5035251;28;20439;-94
2024/03/31 06:57:52;;;;;;;11.53;4.57;;;;;;;11.27;100.00;154253.03;5033110;28;20238;-95
2024/03/31 07:00:18;;;;;;;7.77;4.40;;;;;;;11.29;100.00;154258.22;5034206;28;20943;-96
2024/03/31 07:02:47;;;;;;;13.30;5.33;;;;;;;11.37;100.00;154278.94;5035947;28;20207;-96
2024/03/31 07:05:15;;;;;;;13.03;4.97;;;;;;;11.41;100.00;154290.59;5034191;28;20475;-96
2024/03/31 07:07:41;;;;;;;8.87;3.60;;;;;;;11.52;100.00;154317.81;5016466;28;20435;-94
2024/03/31 07:10:08;;;;;;;15.87;5.70;;;;;;;11.62;100.00;154343.75;5015458;28;20992;-95
2024/03/31 07:12:35;;;;;;;9.40;4.80;;;;;;;11.76;100.00;154380.06;4999245;28;20265;-95
2024/03/31 07:15:02;;;;;;;10.97;4.57;;;;;;;11.96;100.00;154431.94;5031949;28;20491;-96
2024/03/31 07:17:33;;;;;;;8.53;4.60;;;;;;;12.13;100.00;154474.66;5029880;28;21133;-95
2024/03/31 07:19:59;;;;;;;11.53;4.60;;;;;;;12.09;98.63;154465.63;5011493;28;20825;-95
2024/03/31 07:22:26;;;;;;;8.70;4.57;;;;;;;12.32;97.35;154523.94;5021529;28;20448;-95
2024/03/31 07:24:54;;;;;;;6.97;3.70;;;;;;;12.50;96.88;154569.31;5032601;28;20506;-95
2024/03/31 07:27:20;;;;;;;9.23;3.90;;;;;;;12.77;96.09;154640.66;5017508;28;20456;-94
2024/03/31 07:29:46;;;;;;;12.10;4.30;;;;;;;13.00;93.92;154697.75;5030412;28;20477;-95
2024/03/31 07:32:12;;;;;;;8.10;3.87;;;;;;;13.17;92.89;154741.91;5032728;28;20227;-95
2024/03/31 07:34:38;;;;;;;11.50;3.83;;;;;;;13.41;90.89;154805.50;5031597;28;20440;-94
2024/03/31 07:37:04;;;;;;;13.30;4.23;;;;;;;13.46;86.97;154815.84;5031467;28;20222;-96
2024/03/31 07:39:32;;;;;;;8.87;3.73;;;;;;;13.50;87.31;154826.25;5032782;28;20470;-94
2024/03/31 07:41:57;;;;;;;12.90;4.13;;;;;;;13.69;86.46;154876.84;5031406;28;20206;-94
2024/03/31 07:44:24;;;;;;;8.83;3.40;;;;;;;13.82;86.04;154910.59;5032986;28;20479;-95
2024/03/31 07:46:51;;;;;;;11.67;3.93;;;;;;;13.94;84.69;154940.47;5014917;28;20229;-96
2024/03/31 07:49:17;;;;;;;10.17;3.17;;;;;;;14.09;83.13;154979.41;5031516;28;20809;-95
2024/03/31 07:51:43;;;;;;;7.43;3.27;;;;;;;14.12;81.78;154987.19;5033665;28;20836;-96
2024/03/31 07:54:09;;;;;;;10.90;4.07;;;;;;;14.00;81.14;154956.06;5033203;28;20510;-95
2024/03/31 07:56:36;;;;;;;5.83;3.17;;;;;;;13.98;81.93;154950.81;5032996;28;20240;-96
2024/03/31 07:59:02;;;;;;;11.73;4.03;;;;;;;14.08;81.68;154976.84;5033527;28;20452;-96
2024/03/31 08:01:28;;;;;;;7.23;3.93;;;;;;;14.16;81.45;154997.59;5032247;28;20529;-95
2024/03/31 08:03:54;;;;;;;9.13;3.03;;;;;;;14.37;81.10;155050.88;5033149;28;20483;-95
2024/03/31 08:06:21;;;;;;;8.27;3.43;;;;;;;14.43;80.76;155066.44;5032629;28;20812;-95
2024/03/31 08:08:48;;;;;;;8.77;2.80;;;;;;;14.55;78.81;155097.63;5031717;28;20451;-94
2024/03/31 08:11:14;;;;;;;8.10;4.20;;;;;;;14.53;77.48;155093.72;5032503;28;20984;-96
2024/03/31 08:13:42;;;;;;;11.57;3.97;;;;;;;14.58;78.04;155106.75;5014756;28;20804;-95
2024/03/31 08:16:08;;;;;;;7.47;3.40;;;;;;;14.68;77.61;155130.09;5032185;28;20853;-96
2024/03/31 08:18:35;;;;;;;10.70;2.83;;;;;;;14.53;76.66;155093.72;5032581;28;20467;-95
2024/03/31 08:21:01;;;;;;;8.20;3.10;;;;;;;14.48;76.57;155080.72;5033234;28;20680;-96
2024/03/31 08:23:27;;;;;;;10.77;3.33;;;;;;;14.53;77.52;155093.72;5032197;28;20435;-94
2024/03/31 08:25:53;;;;;;;5.07;2.77;;;;;;;14.79;76.76;155160.00;5031605;28;20240;-94
2024/03/31 08:28:19;;;;;;;8.90;2.77;;;;;;;14.97;75.04;155205.44;5032765;28;20432;-93
2024/03/31 08:30:47;;;;;;;8.60;4.13;;;;;;;15.04;74.56;155224.94;5044242;28;20279;-93
2024/03/31 08:33:14;;;;;;;7.20;2.70;;;;;;;14.95;73.74;155200.25;5022288;28;20481;-95
2024/03/31 08:35:39;;;;;;;8.00;2.90;;;;;;;14.73;74.09;155143.09;5032169;28;20440;-95
2024/03/31 08:38:06;;;;;;;9.10;3.03;;;;;;;14.57;75.05;155104.13;5024744;28;20524;-94
2024/03/31 08:40:34;;;;;;;8.23;3.40;;;;;;;14.41;75.47;155062.56;5051375;28;20267;-95
2024/03/31 08:43:04;;;;;;;12.10;3.70;;;;;;;14.31;75.52;155036.59;5034081;28;20437;-95
2024/03/31 08:45:30;;;;;;;6.57;2.77;;;;;;;14.27;76.69;155026.13;5052088;28;20573;-95
2024/03/31 08:48:02;;;;;;;9.57;2.70;;;;;;;14.20;76.08;155007.97;5052477;28;20876;-95
2024/03/31 08:50:28;;;;;;;10.37;3.40;;;;;;;14.12;77.13;154987.19;5051953;28;20447;-96
2024/03/31 08:52:55;;;;;;;11.23;2.70;;;;;;;14.13;77.89;154988.50;5051878;28;20500;-95
2024/03/31 08:55:20;;;;;;;13.70;3.27;;;;;;;13.99;77.55;154954.75;5051961;28;20209;-95
2024/03/31 08:57:47;;;;;;;10.00;3.20;;;;;;;13.95;78.65;154943.09;5050639;28;20999;-95
2024/03/31 09:00:13;;;;;;;12.33;3.10;;;;;;;13.94;77.80;154941.78;5051925;28;20198;-96
2024/03/31 09:02:39;;;;;;;4.87;2.20;;;;;;;13.91;77.35;154933.97;5052046;28;20453;-96
2024/03/31 09:05:07;;;;;;;7.23;3.10;;;;;;;14.01;77.90;154959.94;5033661;28;20993;-95
2024/03/31 09:07:35;;;;;;;6.33;2.70;;;;;;;14.14;77.82;154992.38;5051829;28;20442;-96
2024/03/31 09:10:02;;;;;;;5.90;2.87;;;;;;;14.27;77.31;155026.13;5050437;28;20450;-95
2024/03/31 09:12:29;;;;;;;9.03;3.33;;;;;;;14.34;76.90;155044.41;5051470;28;21012;-95
2024/03/31 09:14:54;;;;;;;11.47;2.47;;;;;;;14.20;75.97;155007.97;5034747;28;20459;-93
2024/03/31 09:17:21;;;;;;;10.00;2.70;;;;;;;14.26;77.18;155023.56;5031804;28;20517;-95
2024/03/31 09:19:48;;;;;;;11.77;3.53;;;;;;;14.44;76.27;155070.38;5031581;28;20524;-94
2024/03/31 09:22:16;;;;;;;6.00;2.50;;;;;;;14.63;75.54;155119.72;5026622;28;20946;-94
2024/03/31 09:24:42;;;;;;;10.73;3.60;;;;;;;14.76;73.86;155152.19;5010472;28;20488;-94
2024/03/31 09:27:09;;;;;;;10.20;3.27;;;;;;;14.57;73.78;155104.13;5029677;28;20470;-93
2024/03/31 09:29:39;;;;;;;7.57;2.73;;;;;;;14.56;74.22;155101.50;5030621;28;20541;-94
2024/03/31 09:32:06;;;;;;;9.13;2.80;;;;;;;14.70;74.14;155136.59;5030165;28;20444;-94
2024/03/31 09:34:32;;;;;;;12.63;2.80;;;;;;;14.84;73.97;155172.97;5012966;28;20505;-94
2024/03/31 09:36:59;;;;;;;7.37;3.53;;;;;;;14.91;72.86;155191.16;5031925;28;20455;-93
2024/03/31 09:39:26;;;;;;;8.70;3.00;;;;;;;14.91;72.38;155191.16;5031196;28;20225;-93
2024/03/31 09:41:53;;;;;;;7.93;2.70;;;;;;;14.75;70.97;155148.25;5033810;28;20482;-92
2024/03/31 09:44:19;;;;;;;12.37;4.50;;;;;;;14.61;72.63;155114.50;5033056;28;20526;-94
2024/03/31 09:46:45;;;;;;;10.93;4.13;;;;;;;14.76;71.04;155150.88;5033642;28;20459;-93
2024/03/31 09:49:12;;;;;;;11.40;3.47;;;;;;;14.72;71.02;155140.50;5030222;28;20210;-94
2024/03/31 09:51:42;;;;;;;10.80;2.73;;;;;;;14.89;71.28;155184.66;5033238;28;20452;-92
2024/03/31 09:54:13;;;;;;;14.43;3.43;;;;;;;15.04;70.36;155224.94;5033389;28;20491;-94
2024/03/31 09:56:43;;;;;;;7.90;2.70;;;;;;;15.14;69.65;155249.66;5030502;28;20460;-92
2024/03/31 09:59:11;;;;;;;12.80;2.80;;;;;;;15.10;70.37;155239.22;5029038;28;20582;-94
2024/03/31 10:01:39;;;;;;;6.20;2.50;;;;;;;15.09;69.87;155236.66;5027318;28;20456;-94
2024/03/31 10:04:09;;;;;;;13.50;4.00;;;;;;;15.21;70.22;155267.81;5028764;28;20561;-94
2024/03/31 10:06:36;;;;;;;11.53;3.10;;;;;;;15.35;69.61;155304.22;5013599;28;20820;-94
2024/03/31 10:09:02;;;;;;;10.60;3.13;;;;;;;15.45;69.00;155330.19;5029537;28;20455;-92
2024/03/31 10:11:29;;;;;;;12.00;2.50;;;;;;;15.51;65.57;155344.56;5033983;28;20836;-90
2024/03/31 10:13:58;;;;;;;11.37;2.73;;;;;;;15.41;66.64;155319.78;5022779;28;20207;-92
2024/03/31 10:16:24;;;;;;;10.50;3.03;;;;;;;15.42;66.12;155322.41;5011407;28;20460;-91
2024/03/31 10:18:51;;;;;;;9.53;3.00;;;;;;;15.39;64.48;155313.28;5028946;28;20495;-92
2024/03/31 10:21:18;;;;;;;10.27;2.93;;;;;;;15.38;64.63;155311.97;5028342;28;20447;-92
2024/03/31 10:23:45;;;;;;;6.57;2.50;;;;;;;15.49;64.11;155339.38;5008988;28;20463;-91
2024/03/31 10:26:14;;;;;;;8.00;3.40;;;;;;;15.60;63.17;155369.22;5028699;28;20886;-91
2024/03/31 10:28:43;;;;;;;9.53;2.80;;;;;;;15.63;63.53;155375.72;5029734;28;20452;-93
2024/03/31 10:31:11;;;;;;;17.50;3.47;;;;;;;15.73;63.84;155403.03;5027296;28;20482;-92
2024/03/31 10:33:37;;;;;;;13.30;3.00;;;;;;;15.75;62.71;155406.97;5011859;28;20456;-91
2024/03/31 10:36:05;;;;;;;10.77;2.53;;;;;;;15.73;61.26;155403.03;5031025;28;20452;-92
2024/03/31 10:38:31;;;;;;;13.00;3.27;;;;;;;15.75;62.32;155408.22;5013303;28;20452;-93
2024/03/31 10:40:58;;;;;;;11.23;2.50;;;;;;;15.88;61.44;155440.75;5014984;28;20466;-93
2024/03/31 10:43:24;;;;;;;8.80;3.07;;;;;;;16.09;60.37;155495.38;5019688;28;21017;-94
2024/03/31 10:45:53;;;;;;;13.63;3.47;;;;;;;16.04;61.43;155482.38;5012568;28;20503;-93
2024/03/31 10:48:20;;;;;;;6.50;2.30;;;;;;;16.04;61.39;155481.06;5028330;28;20496;-93
2024/03/31 10:50:46;;;;;;;14.60;3.30;;;;;;;15.99;61.06;155468.06;5029485;28;20467;-93
2024/03/31 10:53:12;;;;;;;6.30;2.97;;;;;;;15.89;61.39;155442.00;5029117;28;20463;-92
2024/03/31 10:55:43;;;;;;;9.83;2.17;;;;;;;15.78;61.58;155416.03;5012694;28;20521;-91
2024/03/31 10:58:13;;;;;;;13.40;3.90;;;;;;;15.76;63.60;155410.84;5029593;28;20210;-92
2024/03/31 11:00:42;;;;;;;8.67;3.20;;;;;;;15.86;63.25;155434.25;5029963;28;20931;-92
2024/03/31 11:03:08;;;;;;;18.53;4.23;;;;;;;15.98;62.35;155465.44;5030044;28;20519;-92
2024/03/31 11:05:38;;;;;;;12.17;2.63;;;;;;;15.92;62.80;155449.81;5028396;28;20578;-92
2024/03/31 11:08:05;;;;;;;5.33;3.00;;;;;;;15.82;62.69;155425.13;5027883;28;20202;-92
2024/03/31 11:10:32;;;;;;;8.23;2.93;;;;;;;15.77;63.45;155413.47;4996355;28;20463;-93
2024/03/31 11:12:57;;;;;;;11.40;3.17;;;;;;;15.80;63.81;155421.25;5008256;28;20464;-91
2024/03/31 11:15:24;;;;;;;8.47;2.10;;;;;;;15.78;64.34;155416.03;5029694;28;20450;-92
2024/03/31 11:17:49;;;;;;;10.13;3.00;;;;;;;15.82;64.44;155425.13;5030711;28;20570;-93